createdAt,value
2022-09-03T02:39:59.470Z,18.50
2022-09-03T02:42:27.002Z,18.70
2022-09-03T02:44:57.884Z,18.70
2022-09-03T02:47:29.523Z,18.70
2022-09-03T02:49:56.298Z,18.60
2022-09-03T02:52:23.072Z,18.70
2022-09-03T02:54:49.859Z,18.70
2022-09-03T02:57:17.082Z,18.70
2022-09-03T02:59:54.127Z,18.70
2022-09-03T03:02:21.026Z,18.70
2022-09-03T03:04:47.870Z,18.60
2022-09-03T03:07:14.673Z,18.60
2022-09-03T03:09:41.452Z,18.60
2022-09-03T03:12:10.309Z,18.60
2022-09-03T03:14:37.210Z,18.60
2022-09-03T03:17:04.215Z,18.60
2022-09-03T03:19:31.090Z,18.50
2022-09-03T03:21:58.032Z,18.40
2022-09-03T03:24:24.882Z,18.50
2022-09-03T03:26:51.701Z,18.40
2022-09-03T03:29:18.583Z,18.40
2022-09-03T03:31:45.388Z,18.40
2022-09-03T03:34:12.189Z,18.40
2022-09-03T03:36:39.021Z,18.40
2022-09-03T03:39:05.875Z,18.40
2022-09-03T03:41:34.992Z,18.40
2022-09-03T03:44:04.039Z,18.30
2022-09-03T03:46:33.717Z,18.30
2022-09-03T03:49:01.115Z,18.40
2022-09-03T03:51:28.527Z,18.30
2022-09-03T03:53:57.007Z,18.30
2022-09-03T03:56:26.202Z,18.30
2022-09-03T03:58:53.723Z,18.30
2022-09-03T04:01:25.747Z,18.30
2022-09-03T04:03:55.344Z,18.20
2022-09-03T04:06:25.982Z,18.20
2022-09-03T04:08:52.959Z,18.20
2022-09-03T04:11:21.667Z,18.20
2022-09-03T04:13:49.260Z,18.10
2022-09-03T04:16:22.221Z,18.10
2022-09-03T04:18:49.490Z,18.10
2022-09-03T04:21:21.843Z,18.10
2022-09-03T04:23:49.709Z,18.00
2022-09-03T04:26:19.533Z,18.00
2022-09-03T04:28:46.942Z,18.00
2022-09-03T04:31:17.329Z,17.90
2022-09-03T04:33:44.198Z,17.90
2022-09-03T04:36:17.170Z,17.90
2022-09-03T04:38:45.819Z,17.90
2022-09-03T04:41:16.692Z,17.90
2022-09-03T04:43:43.890Z,17.90
2022-09-03T04:46:16.213Z,17.90
2022-09-03T04:48:48.340Z,17.90
2022-09-03T04:51:16.799Z,17.90
2022-09-03T04:53:45.934Z,17.90
2022-09-03T04:56:20.856Z,17.90
2022-09-03T04:58:49.337Z,17.80
2022-09-03T05:01:20.275Z,17.90
2022-09-03T05:03:47.529Z,17.90
2022-09-03T05:06:17.233Z,17.80
2022-09-03T05:08:48.271Z,17.80
2022-09-03T05:11:16.396Z,17.80
2022-09-03T05:13:43.720Z,17.80
2022-09-03T05:16:11.694Z,17.80
2022-09-03T05:18:39.925Z,17.80
2022-09-03T05:21:09.928Z,17.80
2022-09-03T05:23:39.085Z,17.80
2022-09-03T05:26:10.999Z,17.80
2022-09-03T05:28:41.314Z,17.90
2022-09-03T05:31:09.188Z,17.80
2022-09-03T05:33:38.081Z,17.80
2022-09-03T05:36:10.366Z,17.80
2022-09-03T05:38:37.631Z,17.80
2022-09-03T05:41:07.057Z,17.80
2022-09-03T05:43:34.461Z,17.80
2022-09-03T05:46:03.378Z,17.80
2022-09-03T05:48:31.424Z,17.80
2022-09-03T05:51:11.761Z,17.90
2022-09-03T05:53:40.288Z,17.90
2022-09-03T05:56:12.517Z,17.80
2022-09-03T05:58:45.080Z,17.90
2022-09-03T06:01:14.427Z,17.90
2022-09-03T06:03:43.070Z,17.90
2022-09-03T06:06:11.082Z,17.90
2022-09-03T06:08:38.811Z,18.00
2022-09-03T06:11:06.500Z,18.00
2022-09-03T06:13:34.489Z,18.00
2022-09-03T06:16:03.900Z,18.10
2022-09-03T06:18:31.345Z,18.10
2022-09-03T06:21:00.297Z,18.20
2022-09-03T06:23:28.240Z,18.20
2022-09-03T06:26:12.527Z,18.20
2022-09-03T06:28:42.164Z,18.20
2022-09-03T06:31:13.630Z,18.30
2022-09-03T06:33:42.499Z,18.40
2022-09-03T06:36:13.199Z,18.40
2022-09-03T06:38:40.836Z,18.40
2022-09-03T06:41:15.113Z,18.50
2022-09-03T06:43:43.317Z,18.50
2022-09-03T06:46:12.939Z,18.60
2022-09-03T06:48:40.862Z,18.60
2022-09-03T06:51:10.030Z,18.60
2022-09-03T06:53:41.709Z,18.70
2022-09-03T06:56:10.766Z,18.80
2022-09-03T06:58:45.016Z,18.90
2022-09-03T07:01:14.813Z,19.00
2022-09-03T07:03:43.153Z,19.20
2022-09-03T07:06:12.743Z,19.30
2022-09-03T07:08:39.796Z,19.30
2022-09-03T07:11:11.033Z,19.50
2022-09-03T07:13:49.105Z,19.60
2022-09-03T07:16:19.946Z,19.80
2022-09-03T07:18:47.679Z,20.00
2022-09-03T07:21:22.400Z,20.20
2022-09-03T07:23:52.003Z,20.20
2022-09-03T07:26:21.455Z,20.50
2022-09-03T07:28:49.117Z,20.40
2022-09-03T07:31:26.515Z,20.40
2022-09-03T07:33:57.497Z,20.40
2022-09-03T07:36:26.490Z,20.50
2022-09-03T07:38:57.882Z,20.70
2022-09-03T07:41:28.641Z,20.70
2022-09-03T07:43:57.462Z,20.90
2022-09-03T07:46:26.681Z,20.80
2022-09-03T07:48:55.413Z,21.00
2022-09-03T07:51:26.678Z,21.10
2022-09-03T07:53:56.069Z,21.20
